Arklow Mill — EIJD9 — position and weather

sailwx.info

Track history (hours):
 
Tides and Currents Weather Stations Pressure Air Temp Water Temp Dewpoint Dewpoint Depression Visibility Wind Speed Wind Dir Waves Ship Positions

Arklow Mill

Last reported at 2014-Dec-18 09:06 UTC. Time now 2014-Dec-18 09:37 UTC.
Position N 50°21' W 001°27'.

Length 137 m; draft 8.4 m.

Type: Ship. MMSI: 250002022.

Date/timePositionNaut miles runAvg speedWind from/ knotsBaromVisibWave heightAir tempDewpointWater temp
2014-Dec-18 09:06N 50°21' W 001°27'2111.2
2014-Dec-18 07:12N 50°25' W 000°55'710.3
2014-Dec-18 06:32N 50°27' W 000°44'9 9.6
2014-Dec-18 05:33N 50°28' W 000°30'8 8.5
2014-Dec-18 04:33N 50°30' W 000°17'1210.4
2014-Dec-18 03:23N 50°32' E 000°02'1011.8
2014-Dec-18 02:33N 50°34' E 000°17'1312.7
2014-Dec-18 01:33N 50°38' E 000°37'1413.5
2014-Dec-18 00:33N 50°45' E 000°55'1413.9
2014-Dec-17 23:34N 50°53' E 001°13'1313.1
2014-Dec-17 22:34N 51°01' E 001°28'1010.5
2014-Dec-17 21:34N 51°05' E 001°44'1111.1
2014-Dec-17 20:34N 51°03' E 002°02'6 5.9
2014-Dec-17 19:31N 51°00' E 002°11'0 0.0
2014-Dec-17 18:24N 51°00' E 002°11'0 0.0
2014-Dec-17 17:32N 51°00' E 002°11'0 0.0
2014-Dec-17 16:30N 51°00' E 002°11'0 0.0
2014-Dec-17 15:11N 51°00' E 002°11'0 0.0
2014-Dec-17 04:11N 51°00' E 002°11'0 0.0
2014-Dec-16 11:05N 51°00' E 002°11'0 0.0
2014-Dec-15 11:23N 51°00' E 002°11'0 0.0
2014-Dec-15 08:32N 51°00' E 002°11'0 0.0
2014-Dec-15 07:17N 51°00' E 002°11'0 0.0
2014-Dec-15 03:17N 51°00' E 002°11'0 0.0
2014-Dec-15 01:11N 51°00' E 002°11'0 0.0
2014-Dec-14 21:29N 51°00' E 002°11'0 0.0
2014-Dec-14 10:20N 51°00' E 002°11'0 0.0
2014-Dec-14 09:20N 51°00' E 002°11'0 0.0
2014-Dec-14 01:26N 51°00' E 002°11'0 0.0
2014-Dec-13 23:29N 51°00' E 002°11'0 0.0
2014-Dec-13 22:26N 51°00' E 002°11'0 0.0
2014-Dec-13 19:23N 51°00' E 002°11'0 0.0
2014-Dec-13 15:17N 51°00' E 002°11'0 0.0
2014-Dec-13 14:14N 51°00' E 002°11'0 0.0
2014-Dec-13 12:29N 51°00' E 002°11'0 0.0
2014-Dec-13 11:11N 51°00' E 002°11'0 0.0
2014-Dec-13 10:26N 51°00' E 002°11'0 0.0
2014-Dec-12 22:21N 51°00' E 002°11'0 0.0
2014-Dec-12 20:23N 51°00' E 002°11'0 0.0
2014-Dec-12 19:32N 51°00' E 002°11'0 0.0
2014-Dec-12 17:33N 51°00' E 002°11'0 0.0
2014-Dec-12 10:17N 51°00' E 002°11'0 0.0
2014-Dec-12 05:08N 51°00' E 002°11'0 0.0
2014-Dec-12 04:05N 51°00' E 002°11'0 0.0
2014-Dec-11 21:05N 51°00' E 002°11'0 0.1
2014-Dec-11 20:33N 51°00' E 002°11'6 6.2
2014-Dec-11 19:33N 51°02' E 002°02'7 6.7
2014-Dec-11 18:33N 51°03' E 001°51'1 0.6
2014-Dec-11 17:33N 51°04' E 001°52'0 0.0
2014-Dec-11 16:33N 51°04' E 001°52'0 0.0
2014-Dec-11 15:33N 51°04' E 001°52'0 0.0
2014-Dec-11 14:33N 51°04' E 001°52'0 0.0
2014-Dec-11 13:33N 51°04' E 001°52'0 0.0
2014-Dec-11 12:33N 51°04' E 001°52'0 0.1
2014-Dec-11 11:30N 51°04' E 001°52'0 0.5
2014-Dec-11 10:30N 51°03' E 001°51'0 0.2
2014-Dec-11 09:30N 51°03' E 001°52'0 0.1
2014-Dec-11 08:33N 51°03' E 001°52'0 0.1
2014-Dec-11 07:33N 51°03' E 001°52'0 0.0
2014-Dec-11 06:33N 51°04' E 001°52'4 4.3
2014-Dec-11 05:34N 51°02' E 001°45'6 6.4
2014-Dec-11 04:33N 50°59' E 001°37'180 9.5
2014-Dec-10 09:33N 50°11' W 002°57'1313.3
2014-Dec-10 08:34N 50°09' W 003°17'23210.1
2014-Dec-09 09:34N 51°07' W 009°12'1111.3
2014-Dec-09 08:33N 51°11' W 009°29'1212.1
2014-Dec-09 07:33N 51°15' W 009°47'1211.7
2014-Dec-09 06:33N 51°22' W 010°01'1211.8
2014-Dec-09 05:30N 51°31' W 010°16'3210.1
2014-Dec-09 02:22N 51°57' W 010°46'10 8.7
2014-Dec-09 01:15N 52°06' W 010°46'7 9.6
2014-Dec-09 00:33N 52°10' W 010°37'1010.0
2014-Dec-08 23:31N 52°16' W 010°24'1010.2
2014-Dec-08 22:33N 52°22' W 010°10'1510.3
2014-Dec-08 21:04N 52°31' W 009°50'  
Track history (hours):
 
Tides and Currents Weather Stations Pressure Air Temp Water Temp Dewpoint Dewpoint Depression Visibility Wind Speed Wind Dir Waves Ship Positions

Arklow Mill

Last reported at 2014-Dec-18 09:06 UTC. Time now 2014-Dec-18 09:37 UTC.
Position N 50°21' W 001°27'.

Length 137 m; draft 8.4 m.

Type: Ship. MMSI: 250002022.

Date/timePositionNaut miles runAvg speedWind from/ knotsBaromVisibWave heightAir tempDewpointWater temp
2014-Dec-18 09:06N 50°21' W 001°27'2111.2
2014-Dec-18 07:12N 50°25' W 000°55'710.3
2014-Dec-18 06:32N 50°27' W 000°44'9 9.6
2014-Dec-18 05:33N 50°28' W 000°30'8 8.5
2014-Dec-18 04:33N 50°30' W 000°17'1210.4
2014-Dec-18 03:23N 50°32' E 000°02'1011.8
2014-Dec-18 02:33N 50°34' E 000°17'1312.7
2014-Dec-18 01:33N 50°38' E 000°37'1413.5
2014-Dec-18 00:33N 50°45' E 000°55'1413.9
2014-Dec-17 23:34N 50°53' E 001°13'1313.1
2014-Dec-17 22:34N 51°01' E 001°28'1010.5
2014-Dec-17 21:34N 51°05' E 001°44'1111.1
2014-Dec-17 20:34N 51°03' E 002°02'6 5.9
2014-Dec-17 19:31N 51°00' E 002°11'0 0.0
2014-Dec-17 18:24N 51°00' E 002°11'0 0.0
2014-Dec-17 17:32N 51°00' E 002°11'0 0.0
2014-Dec-17 16:30N 51°00' E 002°11'0 0.0
2014-Dec-17 15:11N 51°00' E 002°11'0 0.0
2014-Dec-17 04:11N 51°00' E 002°11'0 0.0
2014-Dec-16 11:05N 51°00' E 002°11'0 0.0
2014-Dec-15 11:23N 51°00' E 002°11'0 0.0
2014-Dec-15 08:32N 51°00' E 002°11'0 0.0
2014-Dec-15 07:17N 51°00' E 002°11'0 0.0
2014-Dec-15 03:17N 51°00' E 002°11'0 0.0
2014-Dec-15 01:11N 51°00' E 002°11'0 0.0
2014-Dec-14 21:29N 51°00' E 002°11'0 0.0
2014-Dec-14 10:20N 51°00' E 002°11'0 0.0
2014-Dec-14 09:20N 51°00' E 002°11'0 0.0
2014-Dec-14 01:26N 51°00' E 002°11'0 0.0
2014-Dec-13 23:29N 51°00' E 002°11'0 0.0
2014-Dec-13 22:26N 51°00' E 002°11'0 0.0
2014-Dec-13 19:23N 51°00' E 002°11'0 0.0
2014-Dec-13 15:17N 51°00' E 002°11'0 0.0
2014-Dec-13 14:14N 51°00' E 002°11'0 0.0
2014-Dec-13 12:29N 51°00' E 002°11'0 0.0
2014-Dec-13 11:11N 51°00' E 002°11'0 0.0
2014-Dec-13 10:26N 51°00' E 002°11'0 0.0
2014-Dec-12 22:21N 51°00' E 002°11'0 0.0
2014-Dec-12 20:23N 51°00' E 002°11'0 0.0
2014-Dec-12 19:32N 51°00' E 002°11'0 0.0
2014-Dec-12 17:33N 51°00' E 002°11'0 0.0
2014-Dec-12 10:17N 51°00' E 002°11'0 0.0
2014-Dec-12 05:08N 51°00' E 002°11'0 0.0
2014-Dec-12 04:05N 51°00' E 002°11'0 0.0
2014-Dec-11 21:05N 51°00' E 002°11'0 0.1
2014-Dec-11 20:33N 51°00' E 002°11'6 6.2
2014-Dec-11 19:33N 51°02' E 002°02'7 6.7
2014-Dec-11 18:33N 51°03' E 001°51'1 0.6
2014-Dec-11 17:33N 51°04' E 001°52'0 0.0
2014-Dec-11 16:33N 51°04' E 001°52'0 0.0
2014-Dec-11 15:33N 51°04' E 001°52'0 0.0
2014-Dec-11 14:33N 51°04' E 001°52'0 0.0
2014-Dec-11 13:33N 51°04' E 001°52'0 0.0
2014-Dec-11 12:33N 51°04' E 001°52'0 0.1
2014-Dec-11 11:30N 51°04' E 001°52'0 0.5
2014-Dec-11 10:30N 51°03' E 001°51'0 0.2
2014-Dec-11 09:30N 51°03' E 001°52'0 0.1
2014-Dec-11 08:33N 51°03' E 001°52'0 0.1
2014-Dec-11 07:33N 51°03' E 001°52'0 0.0
2014-Dec-11 06:33N 51°04' E 001°52'4 4.3
2014-Dec-11 05:34N 51°02' E 001°45'6 6.4
2014-Dec-11 04:33N 50°59' E 001°37'180 9.5
2014-Dec-10 09:33N 50°11' W 002°57'1313.3
2014-Dec-10 08:34N 50°09' W 003°17'23210.1
2014-Dec-09 09:34N 51°07' W 009°12'1111.3
2014-Dec-09 08:33N 51°11' W 009°29'1212.1
2014-Dec-09 07:33N 51°15' W 009°47'1211.7
2014-Dec-09 06:33N 51°22' W 010°01'1211.8
2014-Dec-09 05:30N 51°31' W 010°16'3210.1
2014-Dec-09 02:22N 51°57' W 010°46'10 8.7
2014-Dec-09 01:15N 52°06' W 010°46'7 9.6
2014-Dec-09 00:33N 52°10' W 010°37'1010.0
2014-Dec-08 23:31N 52°16' W 010°24'1010.2
2014-Dec-08 22:33N 52°22' W 010°10'1510.3
2014-Dec-08 21:04N 52°31' W 009°50'  

Dump ship's entire track history